createdAt,value
2022-11-30T00:02:24.523Z,1.00
2022-11-30T00:04:51.105Z,1.00
2022-11-30T00:07:17.703Z,1.00
2022-11-30T00:09:44.388Z,99.90
2022-11-30T00:12:10.953Z,99.90
2022-11-30T00:14:37.561Z,99.90
2022-11-30T00:17:04.129Z,99.90
2022-11-30T00:19:30.718Z,99.90
2022-11-30T00:21:57.260Z,99.90
2022-11-30T00:24:24.001Z,99.90
2022-11-30T00:26:50.534Z,99.90
2022-11-30T00:29:17.085Z,99.90
2022-11-30T00:31:43.712Z,99.90
2022-11-30T00:34:10.258Z,99.90
2022-11-30T00:36:36.810Z,99.90
2022-11-30T00:39:03.479Z,99.90
2022-11-30T00:41:30.027Z,99.90
2022-11-30T00:43:56.600Z,99.90
2022-11-30T00:46:23.212Z,99.90
2022-11-30T00:48:49.809Z,1.40
2022-11-30T00:51:16.392Z,1.00
2022-11-30T00:53:43.185Z,1.00
2022-11-30T00:56:09.884Z,1.00
2022-11-30T00:58:36.448Z,1.00
2022-11-30T01:01:03.202Z,1.00
2022-11-30T01:03:29.866Z,1.00
2022-11-30T01:06:00.970Z,1.40
2022-11-30T01:08:27.535Z,1.00
2022-11-30T01:10:57.644Z,99.90
2022-11-30T01:13:24.291Z,99.90
2022-11-30T01:15:50.896Z,99.90
2022-11-30T01:18:17.498Z,99.90
2022-11-30T01:20:44.047Z,99.90
2022-11-30T01:23:10.661Z,99.90
2022-11-30T01:25:37.252Z,99.90
2022-11-30T01:28:03.892Z,99.90
2022-11-30T01:30:30.544Z,99.90
2022-11-30T01:33:01.199Z,99.90
2022-11-30T01:35:27.758Z,99.90
2022-11-30T01:37:54.291Z,99.90
2022-11-30T01:40:20.995Z,99.90
2022-11-30T01:42:48.342Z,99.90
2022-11-30T01:45:14.992Z,99.90
2022-11-30T01:47:42.362Z,99.90
2022-11-30T01:50:19.703Z,99.90
2022-11-30T01:52:47.052Z,99.90
2022-11-30T01:55:24.722Z,99.90
2022-11-30T01:57:52.297Z,99.90
2022-11-30T02:00:19.128Z,99.90
2022-11-30T02:03:04.552Z,99.90
2022-11-30T02:05:31.378Z,99.90
2022-11-30T02:07:57.958Z,99.90
2022-11-30T02:10:28.492Z,99.90
2022-11-30T02:13:13.905Z,1.00
2022-11-30T02:15:58.989Z,1.00
2022-11-30T02:18:27.298Z,1.00
2022-11-30T02:21:03.092Z,1.00
2022-11-30T02:23:40.813Z,1.00
2022-11-30T02:26:29.844Z,1.00
2022-11-30T02:29:02.982Z,1.00
2022-11-30T02:31:48.179Z,1.00
2022-11-30T02:34:15.146Z,1.00
2022-11-30T02:36:41.683Z,1.00
2022-11-30T02:39:09.433Z,1.00
2022-11-30T02:41:38.273Z,1.00
2022-11-30T02:44:05.010Z,1.00
2022-11-30T02:46:52.945Z,1.00
2022-11-30T02:49:28.297Z,1.00
2022-11-30T02:51:54.838Z,1.00
2022-11-30T02:54:21.387Z,1.00
2022-11-30T02:56:47.978Z,1.00
2022-11-30T02:59:14.510Z,1.00
2022-11-30T03:01:42.489Z,1.00
2022-11-30T03:04:09.065Z,1.00
2022-11-30T03:06:35.606Z,1.00
2022-11-30T03:09:02.163Z,1.00
2022-11-30T03:11:28.720Z,1.00
2022-11-30T03:13:55.259Z,1.00
2022-11-30T03:16:21.849Z,1.00
2022-11-30T03:18:48.417Z,1.00
2022-11-30T03:21:14.982Z,1.00
2022-11-30T03:23:41.568Z,1.00
2022-11-30T03:26:08.298Z,99.90
2022-11-30T03:28:35.460Z,99.90
2022-11-30T03:31:02.145Z,99.90
2022-11-30T03:33:28.764Z,1.40
2022-11-30T03:35:59.275Z,1.00
2022-11-30T03:38:25.817Z,1.00
2022-11-30T03:40:58.866Z,1.00
2022-11-30T03:43:25.403Z,1.00
2022-11-30T03:45:52.024Z,1.00
2022-11-30T03:48:18.554Z,1.00
2022-11-30T03:50:49.720Z,1.00
2022-11-30T03:53:17.347Z,1.00
2022-11-30T03:55:43.901Z,1.00
2022-11-30T03:58:10.599Z,1.00
2022-11-30T04:00:37.205Z,1.00
2022-11-30T04:03:03.828Z,1.00
2022-11-30T04:05:30.445Z,1.00
2022-11-30T04:07:57.016Z,1.00
2022-11-30T04:10:23.983Z,1.00
2022-11-30T04:12:50.520Z,1.00
2022-11-30T04:15:17.189Z,1.00
2022-11-30T04:17:43.722Z,99.90
2022-11-30T04:20:10.886Z,1.00
2022-11-30T04:22:37.434Z,1.00
2022-11-30T04:25:04.063Z,1.00
2022-11-30T04:27:30.600Z,1.00
2022-11-30T04:29:57.149Z,1.00
2022-11-30T04:32:23.702Z,1.00
2022-11-30T04:34:50.376Z,99.90
2022-11-30T04:37:16.951Z,1.00
2022-11-30T04:39:43.529Z,1.00
2022-11-30T04:42:10.080Z,99.90
2022-11-30T04:44:36.709Z,99.90
2022-11-30T04:47:03.263Z,99.90
2022-11-30T04:49:30.026Z,99.90
2022-11-30T04:51:56.934Z,99.90
2022-11-30T04:54:23.475Z,99.90
2022-11-30T04:56:50.027Z,1.00
2022-11-30T04:59:16.559Z,99.90
2022-11-30T05:01:43.186Z,99.90
2022-11-30T05:04:09.837Z,99.90
2022-11-30T05:06:36.415Z,99.90
2022-11-30T05:09:02.969Z,99.90
2022-11-30T05:11:29.532Z,99.90
2022-11-30T05:13:56.077Z,99.90
2022-11-30T05:16:22.690Z,99.90
2022-11-30T05:18:49.281Z,99.90
2022-11-30T05:21:16.650Z,99.90
2022-11-30T05:23:43.310Z,99.90
2022-11-30T05:26:09.913Z,99.90
2022-11-30T05:28:36.456Z,99.90
2022-11-30T05:31:03.807Z,99.90
2022-11-30T05:33:30.407Z,99.90
2022-11-30T05:35:56.964Z,99.90
2022-11-30T05:38:23.515Z,99.90
2022-11-30T05:40:50.062Z,99.90
2022-11-30T05:43:16.631Z,99.90
2022-11-30T05:45:43.337Z,99.90
2022-11-30T05:48:09.880Z,85.30
2022-11-30T05:50:36.717Z,72.40
2022-11-30T05:53:03.259Z,74.20
2022-11-30T05:55:29.872Z,49.50
2022-11-30T05:57:56.407Z,39.10
2022-11-30T06:00:23.245Z,1.20
2022-11-30T06:02:54.795Z,1.00
2022-11-30T06:05:21.401Z,1.00
2022-11-30T06:07:48.021Z,18.00
2022-11-30T06:10:14.651Z,80.90
2022-11-30T06:12:41.241Z,99.90
2022-11-30T06:15:08.703Z,99.90
2022-11-30T06:17:37.849Z,99.90
2022-11-30T06:20:05.208Z,99.90
2022-11-30T06:22:31.771Z,99.90
2022-11-30T06:24:58.311Z,99.90
2022-11-30T06:27:24.861Z,99.90
2022-11-30T06:29:51.398Z,99.90
2022-11-30T06:32:17.944Z,99.90
2022-11-30T06:34:44.628Z,99.90
2022-11-30T06:37:11.316Z,99.90
2022-11-30T06:40:04.712Z,99.90
2022-11-30T06:42:24.396Z,42.90
2022-11-30T06:44:50.965Z,17.70
2022-11-30T06:47:17.535Z,1.10
2022-11-30T06:49:44.094Z,1.00
2022-11-30T06:52:10.653Z,1.00
2022-11-30T06:54:37.204Z,1.00
2022-11-30T06:57:04.250Z,1.00
2022-11-30T06:59:30.805Z,1.00
2022-11-30T07:01:57.426Z,1.00
2022-11-30T07:04:24.005Z,1.00
2022-11-30T07:06:50.586Z,1.00
2022-11-30T07:09:17.125Z,1.00
2022-11-30T07:11:43.685Z,1.00
2022-11-30T07:14:10.225Z,1.00
2022-11-30T07:16:36.895Z,1.00
2022-11-30T07:19:03.540Z,1.00
2022-11-30T07:21:30.091Z,99.90
2022-11-30T07:24:34.924Z,99.90
2022-11-30T07:27:01.679Z,99.90
2022-11-30T07:29:28.835Z,99.90
2022-11-30T07:31:55.444Z,99.90
2022-11-30T07:34:22.280Z,99.90
2022-11-30T07:36:48.868Z,99.90
2022-11-30T07:39:15.856Z,99.90
2022-11-30T07:41:42.454Z,99.90
2022-11-30T07:44:09.015Z,99.90
2022-11-30T07:46:36.084Z,99.90
2022-11-30T07:49:03.071Z,99.90
2022-11-30T07:51:29.621Z,99.90
2022-11-30T07:53:56.416Z,99.90
2022-11-30T07:56:23.065Z,99.90
2022-11-30T07:58:49.964Z,99.90
2022-11-30T08:01:17.353Z,99.90
2022-11-30T08:03:44.088Z,99.90
2022-11-30T08:06:14.429Z,99.90
2022-11-30T08:08:41.737Z,99.90
2022-11-30T08:11:08.724Z,99.90
2022-11-30T08:13:35.434Z,99.90
2022-11-30T08:16:02.723Z,99.90
2022-11-30T08:18:29.377Z,99.90
2022-11-30T08:20:56.651Z,99.90
2022-11-30T08:23:23.204Z,99.90
2022-11-30T08:25:49.752Z,72.00
2022-11-30T08:28:16.304Z,20.30
2022-11-30T08:30:42.859Z,1.00
2022-11-30T08:33:09.473Z,1.00
2022-11-30T08:35:36.037Z,1.00
2022-11-30T08:38:02.591Z,1.00
2022-11-30T08:40:29.355Z,1.00
2022-11-30T08:42:55.963Z,1.00
2022-11-30T08:45:22.490Z,1.00
2022-11-30T08:47:49.040Z,1.00
2022-11-30T08:50:15.611Z,1.00
2022-11-30T08:52:42.215Z,1.00
2022-11-30T08:55:09.006Z,1.00
2022-11-30T08:57:35.595Z,1.00
2022-11-30T09:00:02.250Z,1.00
2022-11-30T09:02:28.884Z,1.00
2022-11-30T09:04:55.487Z,1.00
2022-11-30T09:07:22.734Z,1.00
2022-11-30T09:09:49.405Z,99.90
2022-11-30T09:12:15.957Z,99.90
2022-11-30T09:14:42.747Z,99.90
2022-11-30T09:17:09.365Z,99.90
2022-11-30T09:19:35.965Z,99.90
2022-11-30T09:22:02.559Z,58.20
2022-11-30T09:24:29.103Z,15.70
2022-11-30T09:26:56.721Z,1.00
2022-11-30T09:29:23.756Z,11.70
2022-11-30T09:31:50.334Z,29.80
2022-11-30T09:34:16.881Z,40.10
2022-11-30T09:36:43.476Z,99.90
2022-11-30T09:39:10.541Z,31.00
2022-11-30T09:41:53.906Z,1.00
2022-11-30T09:44:29.701Z,1.00
2022-11-30T09:46:59.317Z,1.00
2022-11-30T09:49:27.261Z,1.00
2022-11-30T09:51:54.314Z,1.00
2022-11-30T09:54:35.366Z,1.00
2022-11-30T09:57:25.344Z,1.00
2022-11-30T09:59:53.410Z,1.00
2022-11-30T10:02:22.333Z,1.00
2022-11-30T10:04:49.401Z,1.00
2022-11-30T10:07:19.177Z,1.00
2022-11-30T10:09:53.178Z,1.00
2022-11-30T10:12:34.215Z,1.00
2022-11-30T10:15:04.163Z,1.00
2022-11-30T10:17:34.351Z,1.00
2022-11-30T10:20:23.484Z,1.00
2022-11-30T10:22:53.047Z,1.00
2022-11-30T10:25:23.556Z,1.00
2022-11-30T10:27:50.980Z,1.00
2022-11-30T10:30:18.838Z,1.00
2022-11-30T10:32:46.176Z,1.00
2022-11-30T10:35:42.190Z,16.00
2022-11-30T10:38:13.660Z,84.60
2022-11-30T10:40:43.087Z,99.90
2022-11-30T10:43:12.683Z,99.90
2022-11-30T10:45:40.506Z,99.90
2022-11-30T10:48:25.616Z,99.90
2022-11-30T10:50:52.206Z,97.60
2022-11-30T10:53:18.802Z,99.90
2022-11-30T10:55:46.689Z,99.90
2022-11-30T10:58:20.884Z,42.10
2022-11-30T11:00:52.908Z,6.40
2022-11-30T11:03:22.027Z,1.00
2022-11-30T11:05:48.589Z,1.00
2022-11-30T11:08:19.205Z,1.00
2022-11-30T11:10:46.282Z,1.00
2022-11-30T11:13:19.077Z,1.00
2022-11-30T11:15:58.853Z,1.00
2022-11-30T11:18:26.235Z,1.00
2022-11-30T11:21:06.721Z,1.00
2022-11-30T11:23:34.815Z,1.00
2022-11-30T11:26:01.346Z,1.00
2022-11-30T11:28:28.256Z,1.00
2022-11-30T11:30:55.515Z,1.00
2022-11-30T11:33:28.719Z,1.00
2022-11-30T11:35:56.490Z,1.00
2022-11-30T11:38:27.378Z,1.00
2022-11-30T11:40:56.959Z,1.00
2022-11-30T11:43:23.893Z,1.00
2022-11-30T11:45:51.297Z,1.00
2022-11-30T11:48:37.984Z,32.80
2022-11-30T11:51:07.439Z,75.70
2022-11-30T11:53:43.902Z,99.90
2022-11-30T11:56:31.958Z,99.90
2022-11-30T11:59:04.452Z,99.90
2022-11-30T12:01:49.252Z,99.90
2022-11-30T12:04:22.258Z,99.90
2022-11-30T12:06:48.959Z,99.90
2022-11-30T12:09:16.329Z,99.90
2022-11-30T12:11:43.732Z,99.90
2022-11-30T12:14:13.831Z,99.90
2022-11-30T12:16:40.386Z,99.90
2022-11-30T12:19:14.430Z,99.90
2022-11-30T12:21:40.940Z,99.90
2022-11-30T12:24:25.913Z,99.90
2022-11-30T12:26:58.017Z,99.90
2022-11-30T12:29:34.475Z,99.90
2022-11-30T12:32:01.040Z,99.90
2022-11-30T12:34:47.878Z,99.90
2022-11-30T12:37:17.406Z,99.90
2022-11-30T12:39:51.199Z,1.00
2022-11-30T12:42:36.616Z,1.00
2022-11-30T12:45:17.001Z,1.00
2022-11-30T12:47:43.522Z,1.00
2022-11-30T12:50:19.097Z,1.00
2022-11-30T12:52:54.029Z,1.00
2022-11-30T12:55:24.786Z,1.00
2022-11-30T12:57:59.528Z,1.00
2022-11-30T13:00:26.615Z,1.00
2022-11-30T13:02:56.317Z,1.00
2022-11-30T13:05:24.765Z,1.00
2022-11-30T13:07:53.019Z,1.00
2022-11-30T13:10:28.992Z,1.00
2022-11-30T13:12:55.751Z,1.00
2022-11-30T13:15:22.990Z,1.00
2022-11-30T13:17:52.815Z,1.00
2022-11-30T13:20:39.683Z,1.00
2022-11-30T13:23:21.612Z,1.00
2022-11-30T13:26:08.182Z,1.00
2022-11-30T13:28:41.607Z,1.00
2022-11-30T13:31:09.158Z,1.00
2022-11-30T13:33:54.145Z,1.00
2022-11-30T13:36:36.024Z,1.00
2022-11-30T13:39:09.619Z,34.00
2022-11-30T13:41:36.616Z,71.10
2022-11-30T13:44:03.187Z,99.90
2022-11-30T13:46:29.770Z,99.90
2022-11-30T13:49:10.218Z,99.90
2022-11-30T13:51:37.661Z,99.90
2022-11-30T13:54:27.616Z,73.20
2022-11-30T13:56:54.485Z,99.90
2022-11-30T13:59:23.923Z,99.90
2022-11-30T14:01:54.027Z,99.90
2022-11-30T14:04:22.694Z,85.70
2022-11-30T14:06:49.289Z,59.30
2022-11-30T14:09:16.234Z,99.90
2022-11-30T14:11:45.761Z,91.00
2022-11-30T14:14:31.040Z,56.90
2022-11-30T14:16:57.583Z,42.50
2022-11-30T14:19:24.136Z,14.20
2022-11-30T14:21:50.699Z,62.20
2022-11-30T14:24:23.498Z,97.60
2022-11-30T14:26:50.382Z,99.90
2022-11-30T14:29:18.691Z,99.90
2022-11-30T14:31:48.323Z,99.90
2022-11-30T14:34:18.980Z,99.90
2022-11-30T14:36:48.049Z,99.90
2022-11-30T14:39:43.948Z,99.90
2022-11-30T14:42:27.625Z,99.90
2022-11-30T14:44:54.316Z,99.90
2022-11-30T14:47:25.947Z,99.90
2022-11-30T14:49:52.973Z,99.90
2022-11-30T14:52:21.676Z,99.90
2022-11-30T14:54:56.569Z,99.90
2022-11-30T14:57:34.976Z,99.90
2022-11-30T15:00:01.756Z,99.90
2022-11-30T15:02:37.200Z,99.90
2022-11-30T15:05:07.035Z,99.90
2022-11-30T15:07:34.931Z,99.90
2022-11-30T15:10:05.443Z,99.90
2022-11-30T15:12:31.994Z,99.90
2022-11-30T15:15:09.818Z,99.90
2022-11-30T15:17:55.885Z,99.90
2022-11-30T15:20:22.447Z,99.90
2022-11-30T15:22:48.991Z,99.90
2022-11-30T15:25:15.617Z,99.90
2022-11-30T15:27:42.187Z,99.90
2022-11-30T15:30:16.021Z,99.90
2022-11-30T15:32:46.908Z,99.90
2022-11-30T15:35:20.557Z,99.90
2022-11-30T15:37:47.768Z,99.90
2022-11-30T15:40:14.886Z,99.90
2022-11-30T15:42:41.478Z,99.90
2022-11-30T15:45:16.230Z,99.90
2022-11-30T15:47:42.771Z,99.90
2022-11-30T15:50:24.732Z,99.90
2022-11-30T15:52:51.264Z,99.90
2022-11-30T15:55:50.700Z,99.90
2022-11-30T15:58:45.308Z,1.00
2022-11-30T16:01:16.784Z,1.00
2022-11-30T16:03:55.468Z,1.00
2022-11-30T16:06:22.503Z,1.00
2022-11-30T16:08:49.079Z,1.00
2022-11-30T16:11:17.278Z,1.00
2022-11-30T16:13:43.883Z,1.00
2022-11-30T16:16:11.292Z,1.00
2022-11-30T16:18:37.881Z,1.00
2022-11-30T16:21:04.445Z,1.00
2022-11-30T16:23:30.992Z,1.00
2022-11-30T16:25:57.605Z,1.00
2022-11-30T16:28:24.204Z,99.90
2022-11-30T16:30:50.852Z,99.90
2022-11-30T16:33:18.768Z,99.90
2022-11-30T16:35:53.815Z,1.00
2022-11-30T16:38:20.416Z,1.00
2022-11-30T16:40:47.025Z,1.00
2022-11-30T16:43:13.963Z,1.00
2022-11-30T16:45:40.849Z,1.00
2022-11-30T16:48:07.475Z,1.00
2022-11-30T16:50:34.764Z,1.00
2022-11-30T16:53:01.658Z,1.00
2022-11-30T16:55:29.350Z,1.00
2022-11-30T16:57:56.337Z,1.00
2022-11-30T17:00:23.259Z,1.00
2022-11-30T17:03:04.560Z,1.00
2022-11-30T17:05:31.115Z,1.00
2022-11-30T17:07:57.779Z,1.00
2022-11-30T17:10:24.366Z,1.00
2022-11-30T17:12:51.100Z,1.00
2022-11-30T17:15:18.640Z,1.00
2022-11-30T17:17:45.260Z,1.00
2022-11-30T17:20:13.004Z,1.00
2022-11-30T17:22:39.856Z,1.00
2022-11-30T17:25:07.022Z,1.00
2022-11-30T17:27:33.568Z,1.00
2022-11-30T17:30:00.120Z,1.00
2022-11-30T17:32:26.665Z,1.00
2022-11-30T17:34:53.219Z,1.00
2022-11-30T17:37:19.762Z,1.00
2022-11-30T17:39:46.311Z,1.00
2022-11-30T17:42:12.839Z,1.00
2022-11-30T17:44:39.392Z,1.00
2022-11-30T17:47:05.975Z,1.00
2022-11-30T17:49:32.521Z,1.00
2022-11-30T17:51:59.131Z,1.00
2022-11-30T17:54:25.694Z,1.00
2022-11-30T17:56:52.909Z,1.00
2022-11-30T17:59:19.543Z,1.00
2022-11-30T18:01:46.189Z,1.00
2022-11-30T18:04:13.541Z,1.00
2022-11-30T18:06:40.118Z,1.00
2022-11-30T18:09:06.680Z,1.00
2022-11-30T18:11:33.740Z,1.00
2022-11-30T18:14:00.566Z,99.90
2022-11-30T18:16:28.104Z,99.90
2022-11-30T18:18:56.276Z,99.90
2022-11-30T18:21:23.234Z,99.90
2022-11-30T18:23:49.895Z,99.90
2022-11-30T18:26:17.414Z,99.90
2022-11-30T18:28:44.194Z,99.90
2022-11-30T18:31:10.887Z,99.90
2022-11-30T18:33:37.687Z,99.90
2022-11-30T18:36:06.563Z,99.90
2022-11-30T18:38:37.508Z,99.90
2022-11-30T18:41:05.229Z,99.90
2022-11-30T18:43:33.365Z,62.30
2022-11-30T18:46:07.245Z,10.80
2022-11-30T18:48:33.944Z,51.70
2022-11-30T18:51:08.016Z,29.00
2022-11-30T18:53:34.698Z,32.30
2022-11-30T18:56:10.675Z,63.90
2022-11-30T18:58:37.207Z,46.80
2022-11-30T19:01:14.240Z,50.60
2022-11-30T19:03:41.461Z,97.20
2022-11-30T19:06:08.185Z,85.00
2022-11-30T19:08:35.206Z,32.10
2022-11-30T19:11:05.188Z,1.00
2022-11-30T19:13:34.735Z,1.00
2022-11-30T19:16:04.698Z,1.00
2022-11-30T19:18:31.364Z,1.00
2022-11-30T19:20:57.982Z,1.00
2022-11-30T19:23:24.541Z,1.00
2022-11-30T19:25:51.188Z,1.00
2022-11-30T19:28:17.844Z,1.00
2022-11-30T19:30:44.470Z,1.00
2022-11-30T19:33:11.135Z,1.00
2022-11-30T19:35:38.509Z,8.80
2022-11-30T19:38:05.070Z,54.60
2022-11-30T19:40:32.306Z,99.90
2022-11-30T19:42:59.412Z,99.90
2022-11-30T19:45:26.105Z,99.90
2022-11-30T19:47:52.654Z,99.90
2022-11-30T19:50:19.296Z,99.90
2022-11-30T19:52:45.938Z,99.90
2022-11-30T19:55:12.521Z,99.90
2022-11-30T19:57:39.114Z,99.90
2022-11-30T20:00:06.261Z,99.90
2022-11-30T20:02:33.402Z,1.00
2022-11-30T20:05:00.118Z,1.00
2022-11-30T20:07:26.889Z,1.00
2022-11-30T20:09:53.443Z,1.00
2022-11-30T20:12:20.316Z,1.00
2022-11-30T20:14:50.028Z,1.00
2022-11-30T20:17:16.905Z,1.00
2022-11-30T20:19:43.471Z,1.00
2022-11-30T20:22:10.095Z,1.00
2022-11-30T20:24:36.626Z,1.00
2022-11-30T20:27:04.002Z,1.00
2022-11-30T20:29:30.534Z,1.00
2022-11-30T20:31:57.098Z,1.00
2022-11-30T20:34:27.485Z,1.00
2022-11-30T20:36:57.740Z,1.00
2022-11-30T20:39:24.295Z,1.00
2022-11-30T20:41:50.861Z,1.00
2022-11-30T20:44:17.403Z,1.00
2022-11-30T20:46:44.100Z,1.00
2022-11-30T20:49:13.398Z,1.00
2022-11-30T20:51:39.947Z,1.00
2022-11-30T20:54:06.939Z,4.40
2022-11-30T20:56:35.225Z,1.00
2022-11-30T20:59:02.244Z,1.00
2022-11-30T21:01:28.841Z,1.00
2022-11-30T21:03:55.461Z,1.00
2022-11-30T21:06:22.021Z,1.00
2022-11-30T21:08:48.555Z,1.00
2022-11-30T21:11:16.449Z,1.00
2022-11-30T21:13:44.009Z,1.00
2022-11-30T21:16:10.779Z,1.00
2022-11-30T21:18:37.919Z,1.00
2022-11-30T21:21:05.086Z,1.00
2022-11-30T21:23:31.738Z,1.00
2022-11-30T21:26:05.078Z,1.00
2022-11-30T21:28:37.642Z,1.00
2022-11-30T21:31:04.989Z,99.90
2022-11-30T21:33:31.570Z,99.90
2022-11-30T21:35:58.143Z,99.90
2022-11-30T21:38:24.688Z,99.90
2022-11-30T21:40:55.280Z,99.90
2022-11-30T21:43:22.024Z,99.90
2022-11-30T21:46:01.027Z,99.90
2022-11-30T21:48:37.003Z,99.90
2022-11-30T21:51:04.283Z,37.90
2022-11-30T21:53:30.894Z,15.30
2022-11-30T21:56:04.299Z,15.70
2022-11-30T21:58:31.531Z,90.70
2022-11-30T22:00:58.557Z,99.90
2022-11-30T22:03:25.320Z,99.90
2022-11-30T22:06:01.382Z,99.90
2022-11-30T22:08:28.175Z,91.70
2022-11-30T22:10:54.776Z,99.60
2022-11-30T22:13:21.347Z,99.90
2022-11-30T22:15:47.987Z,99.90
2022-11-30T22:18:14.580Z,99.90
2022-11-30T22:20:41.129Z,99.90
2022-11-30T22:23:07.733Z,99.90
2022-11-30T22:25:34.270Z,99.90
2022-11-30T22:28:00.851Z,99.90
2022-11-30T22:30:27.432Z,99.90
2022-11-30T22:32:54.103Z,99.90
2022-11-30T22:35:20.656Z,99.90
2022-11-30T22:37:47.212Z,99.90
2022-11-30T22:40:13.956Z,99.90
2022-11-30T22:42:40.544Z,1.00
2022-11-30T22:45:07.625Z,1.00
2022-11-30T22:47:34.192Z,1.00
2022-11-30T22:50:00.797Z,1.00
2022-11-30T22:52:48.282Z,1.00
2022-11-30T22:55:14.039Z,1.00
2022-11-30T22:57:40.644Z,1.00
2022-11-30T23:00:07.529Z,1.00
2022-11-30T23:02:34.149Z,1.00
2022-11-30T23:05:00.760Z,1.00
2022-11-30T23:07:31.824Z,1.00
2022-11-30T23:09:59.009Z,1.00
2022-11-30T23:12:51.294Z,1.00
2022-11-30T23:15:12.127Z,1.00
2022-11-30T23:17:38.683Z,1.00
2022-11-30T23:20:05.527Z,1.00
2022-11-30T23:22:32.079Z,1.00
2022-11-30T23:24:58.619Z,1.00
2022-11-30T23:27:25.179Z,1.00
2022-11-30T23:29:51.715Z,1.00
2022-11-30T23:32:18.316Z,1.00
2022-11-30T23:34:49.349Z,99.90
2022-11-30T23:37:17.176Z,99.90
2022-11-30T23:39:43.735Z,99.90
2022-11-30T23:42:10.299Z,99.90
2022-11-30T23:44:36.837Z,99.90
2022-11-30T23:47:03.762Z,99.90
2022-11-30T23:49:30.375Z,99.90
2022-11-30T23:51:58.802Z,99.90
2022-11-30T23:54:25.349Z,99.90
2022-11-30T23:56:52.045Z,99.90
2022-11-30T23:59:18.612Z,99.90
